createdAt,value
2023-02-02T00:01:47.209Z,3.60
2023-02-02T00:04:21.794Z,3.80
2023-02-02T00:06:50.339Z,3.90
2023-02-02T00:09:20.327Z,3.40
2023-02-02T00:11:49.263Z,2.40
2023-02-02T00:14:18.679Z,3.10
2023-02-02T00:16:47.823Z,3.80
2023-02-02T00:19:18.785Z,3.80
2023-02-02T00:24:18.154Z,3.60
2023-02-02T00:26:50.051Z,3.30
2023-02-02T00:29:21.266Z,3.30
2023-02-02T00:31:49.629Z,2.90
2023-02-02T00:34:18.147Z,3.80
2023-02-02T00:36:46.963Z,3.30
2023-02-02T00:39:18.776Z,3.20
2023-02-02T00:41:47.462Z,3.40
2023-02-02T00:44:34.131Z,2.90
2023-02-02T00:47:02.710Z,3.30
2023-02-02T00:49:31.023Z,3.10
2023-02-02T00:52:00.496Z,3.20
2023-02-02T00:54:28.921Z,2.70
2023-02-02T00:56:57.096Z,2.70
2023-02-02T00:59:25.278Z,2.60
2023-02-02T01:01:53.438Z,3.00
2023-02-02T01:04:21.571Z,3.80
2023-02-02T01:06:49.869Z,2.90
2023-02-02T01:09:18.025Z,2.80
2023-02-02T01:11:46.119Z,2.80
2023-02-02T01:14:14.198Z,2.80
2023-02-02T01:16:42.340Z,2.80
2023-02-02T01:19:13.423Z,2.90
2023-02-02T01:21:42.036Z,3.00
2023-02-02T01:24:10.627Z,2.80
2023-02-02T01:26:38.701Z,3.00
2023-02-02T01:29:06.831Z,2.90
2023-02-02T01:31:35.075Z,2.40
2023-02-02T01:34:03.200Z,2.70
2023-02-02T01:36:31.358Z,2.50
2023-02-02T01:38:59.559Z,2.70
2023-02-02T01:41:29.092Z,2.60
2023-02-02T01:43:59.947Z,3.00
2023-02-02T01:49:08.137Z,2.90
2023-02-02T01:51:45.825Z,2.70
2023-02-02T01:54:21.870Z,2.60
2023-02-02T01:56:54.945Z,2.50
2023-02-02T01:59:23.877Z,2.50
2023-02-02T02:01:52.737Z,2.60
2023-02-02T02:04:22.360Z,2.40
2023-02-02T02:06:53.657Z,2.50
2023-02-02T02:09:21.845Z,2.30
2023-02-02T02:11:49.871Z,2.30
2023-02-02T02:14:36.562Z,2.10
2023-02-02T02:17:10.498Z,2.40
2023-02-02T02:20:34.912Z,2.40
2023-02-02T02:23:40.433Z,1.90
2023-02-02T02:26:35.730Z,2.60
2023-02-02T02:29:26.585Z,2.60
2023-02-02T02:32:36.398Z,3.00
2023-02-02T02:35:27.697Z,2.50
2023-02-02T02:38:30.970Z,2.70
2023-02-02T02:41:04.909Z,2.70
2023-02-02T02:43:41.883Z,2.80
2023-02-02T02:46:11.515Z,2.60
2023-02-02T02:48:39.717Z,2.30
2023-02-02T02:51:39.937Z,2.70
2023-02-02T02:54:08.271Z,2.60
2023-02-02T02:56:44.554Z,2.70
2023-02-02T02:59:25.123Z,2.20
2023-02-02T03:02:24.634Z,2.40
2023-02-02T03:05:08.144Z,2.90
2023-02-02T03:07:43.491Z,2.80
2023-02-02T03:10:14.389Z,3.30
2023-02-02T03:12:51.114Z,3.00
2023-02-02T03:15:19.716Z,2.90
2023-02-02T03:17:49.571Z,2.30
2023-02-02T03:20:18.151Z,2.30
2023-02-02T03:22:46.296Z,2.10
2023-02-02T03:25:16.107Z,2.50
2023-02-02T03:27:44.538Z,2.40
2023-02-02T03:30:13.985Z,3.00
2023-02-02T03:32:42.317Z,2.80
2023-02-02T03:35:10.814Z,3.20
2023-02-02T03:37:39.201Z,3.30
2023-02-02T03:40:07.890Z,3.60
2023-02-02T03:42:35.933Z,2.90
2023-02-02T03:45:04.814Z,2.70
2023-02-02T03:47:33.587Z,3.00
2023-02-02T03:50:01.700Z,3.20
2023-02-02T03:52:29.735Z,2.50
2023-02-02T03:54:57.802Z,2.70
2023-02-02T03:57:25.902Z,3.20
2023-02-02T03:59:53.972Z,3.10
2023-02-02T04:02:22.208Z,3.30
2023-02-02T04:04:50.272Z,2.90
2023-02-02T04:07:18.313Z,3.20
2023-02-02T04:09:46.327Z,2.90
2023-02-02T04:12:14.456Z,3.00
2023-02-02T04:14:42.508Z,3.30
2023-02-02T04:17:11.598Z,3.50
2023-02-02T04:19:39.711Z,3.70
2023-02-02T04:22:07.832Z,3.80
2023-02-02T04:24:38.005Z,3.70
2023-02-02T04:27:06.271Z,3.10
2023-02-02T04:29:34.391Z,4.00
2023-02-02T04:32:02.597Z,4.20
2023-02-02T04:34:30.623Z,3.80
2023-02-02T04:36:58.791Z,3.60
2023-02-02T04:39:26.978Z,3.60
2023-02-02T04:41:54.937Z,3.70
2023-02-02T04:44:23.000Z,3.90
2023-02-02T04:46:51.025Z,3.60
2023-02-02T04:49:19.200Z,3.30
2023-02-02T04:51:47.721Z,3.30
2023-02-02T04:54:15.758Z,3.20
2023-02-02T04:56:44.157Z,3.30
2023-02-02T04:59:12.247Z,3.10
2023-02-02T05:01:40.327Z,3.40
2023-02-02T05:04:08.503Z,3.40
2023-02-02T05:06:36.753Z,3.60
2023-02-02T05:09:05.011Z,3.30
2023-02-02T05:11:33.075Z,2.90
2023-02-02T05:14:01.187Z,3.00
2023-02-02T05:16:29.404Z,3.50
2023-02-02T05:18:59.577Z,3.30
2023-02-02T05:21:27.888Z,3.80
2023-02-02T05:23:55.981Z,3.50
2023-02-02T05:26:26.699Z,3.40
2023-02-02T05:28:55.059Z,3.60
2023-02-02T05:31:23.107Z,3.00
2023-02-02T05:33:51.256Z,3.00
2023-02-02T05:36:19.368Z,3.20
2023-02-02T05:38:47.424Z,3.70
2023-02-02T05:41:17.005Z,3.80
2023-02-02T05:43:45.107Z,4.70
2023-02-02T05:46:13.486Z,4.70
2023-02-02T05:48:41.595Z,4.70
2023-02-02T05:51:19.045Z,4.00
2023-02-02T05:53:47.337Z,4.20
2023-02-02T05:56:16.276Z,4.40
2023-02-02T05:58:44.864Z,4.30
2023-02-02T06:01:13.875Z,4.60
2023-02-02T06:03:42.098Z,3.30
2023-02-02T06:06:10.371Z,4.20
2023-02-02T06:08:38.438Z,3.90
2023-02-02T06:11:14.819Z,2.50
2023-02-02T06:13:45.952Z,3.80
2023-02-02T06:16:14.850Z,4.80
2023-02-02T06:18:43.155Z,3.80
2023-02-02T06:21:11.965Z,3.40
2023-02-02T06:23:45.829Z,3.60
2023-02-02T06:26:14.458Z,2.90
2023-02-02T06:28:43.551Z,3.50
2023-02-02T06:31:12.083Z,3.20
2023-02-02T06:33:40.351Z,3.00
2023-02-02T06:36:08.387Z,3.90
2023-02-02T06:38:36.649Z,4.40
2023-02-02T06:41:04.968Z,5.50
2023-02-02T06:43:33.089Z,5.40
2023-02-02T06:46:01.335Z,3.90
2023-02-02T06:48:29.397Z,4.70
2023-02-02T06:51:00.869Z,3.90
2023-02-02T06:53:28.937Z,4.60
2023-02-02T06:55:59.301Z,5.60
2023-02-02T06:58:28.619Z,4.40
2023-02-02T07:01:04.432Z,5.40
2023-02-02T07:03:33.846Z,4.90
2023-02-02T07:06:19.667Z,5.10
2023-02-02T07:08:51.266Z,4.70
2023-02-02T07:11:37.623Z,5.20
2023-02-02T07:14:11.351Z,4.50
2023-02-02T07:16:39.469Z,3.80
2023-02-02T07:19:11.598Z,3.60
2023-02-02T07:21:39.767Z,3.70
2023-02-02T07:24:08.200Z,4.10
2023-02-02T07:26:36.956Z,4.30
2023-02-02T07:29:05.669Z,4.20
2023-02-02T07:31:36.262Z,4.90
2023-02-02T07:34:05.046Z,3.60
2023-02-02T07:36:33.885Z,4.70
2023-02-02T07:39:04.986Z,4.00
2023-02-02T07:41:35.401Z,3.40
2023-02-02T07:44:05.187Z,3.30
2023-02-02T07:46:33.532Z,3.00
2023-02-02T07:49:01.662Z,2.60
2023-02-02T07:51:29.688Z,2.30
2023-02-02T07:53:59.620Z,2.50
2023-02-02T07:56:28.524Z,2.90
2023-02-02T07:58:57.557Z,2.80
2023-02-02T08:01:27.209Z,2.40
2023-02-02T08:04:00.482Z,2.60
2023-02-02T08:06:32.279Z,2.80
2023-02-02T08:09:01.875Z,2.00
2023-02-02T08:11:30.489Z,2.30
2023-02-02T08:14:01.342Z,2.30
2023-02-02T08:18:59.316Z,2.30
2023-02-02T08:21:27.793Z,2.40
2023-02-02T08:23:56.040Z,2.30
2023-02-02T08:26:26.758Z,2.10
2023-02-02T08:29:01.315Z,2.40
2023-02-02T08:31:37.145Z,2.30
2023-02-02T08:34:05.582Z,2.20
2023-02-02T08:36:37.095Z,2.20
2023-02-02T08:39:07.835Z,2.50
2023-02-02T08:41:37.072Z,2.70
2023-02-02T08:44:11.551Z,3.00
2023-02-02T08:46:40.373Z,2.40
2023-02-02T08:49:12.525Z,2.50
2023-02-02T08:51:40.762Z,2.20
2023-02-02T08:54:09.038Z,2.60
2023-02-02T08:56:37.151Z,2.70
2023-02-02T08:59:06.078Z,2.50
2023-02-02T09:01:35.207Z,2.90
2023-02-02T09:04:06.393Z,2.80
2023-02-02T09:06:37.815Z,2.40
2023-02-02T09:09:09.207Z,2.60
2023-02-02T09:11:38.180Z,2.20
2023-02-02T09:14:06.928Z,1.90
2023-02-02T09:16:35.805Z,1.80
2023-02-02T09:19:05.051Z,1.90
2023-02-02T09:21:37.509Z,1.90
2023-02-02T09:24:11.886Z,1.40
2023-02-02T09:26:40.967Z,1.70
2023-02-02T09:29:13.117Z,1.60
2023-02-02T09:31:41.891Z,1.90
2023-02-02T09:34:12.842Z,1.60
2023-02-02T09:39:12.900Z,1.80
2023-02-02T09:41:41.094Z,1.50
2023-02-02T09:44:28.025Z,1.50
2023-02-02T09:47:27.079Z,1.60
2023-02-02T09:50:09.427Z,1.60
2023-02-02T09:52:53.528Z,1.70
2023-02-02T09:55:35.221Z,1.60
2023-02-02T09:58:30.273Z,1.60
2023-02-02T10:01:14.432Z,1.80
2023-02-02T10:04:04.554Z,1.50
2023-02-02T10:06:41.148Z,1.60
2023-02-02T10:09:12.417Z,1.70
2023-02-02T10:11:58.332Z,1.70
2023-02-02T10:14:26.430Z,1.60
2023-02-02T10:16:57.299Z,1.90
2023-02-02T10:19:29.301Z,1.90
2023-02-02T10:22:04.728Z,1.70
2023-02-02T10:24:35.566Z,1.70
2023-02-02T10:29:59.567Z,1.60
2023-02-02T10:32:54.576Z,1.50
2023-02-02T10:35:37.295Z,1.40
2023-02-02T10:38:25.582Z,1.50
2023-02-02T10:41:05.856Z,1.80
2023-02-02T10:44:04.230Z,1.60
2023-02-02T10:46:43.416Z,1.60
2023-02-02T10:49:32.021Z,1.50
2023-02-02T10:52:05.994Z,1.60
2023-02-02T10:55:05.901Z,1.70
2023-02-02T10:57:55.028Z,1.60
2023-02-02T11:00:35.133Z,1.70
2023-02-02T11:03:04.996Z,1.70
2023-02-02T11:05:52.095Z,1.50
2023-02-02T11:08:42.280Z,1.70
2023-02-02T11:11:29.505Z,1.80
2023-02-02T11:14:09.893Z,1.50
2023-02-02T11:16:43.752Z,1.60
2023-02-02T11:19:17.995Z,1.40
2023-02-02T11:21:48.844Z,1.80
2023-02-02T11:27:23.617Z,1.70
2023-02-02T11:29:54.095Z,1.40
2023-02-02T11:32:34.899Z,1.40
2023-02-02T11:35:02.874Z,1.40
2023-02-02T11:37:33.582Z,1.30
2023-02-02T11:40:18.843Z,1.40
2023-02-02T11:42:48.568Z,1.40
2023-02-02T11:45:20.217Z,1.60
2023-02-02T11:47:50.946Z,1.70
2023-02-02T11:50:27.890Z,1.50
2023-02-02T11:52:56.474Z,1.40
2023-02-02T11:55:30.483Z,1.50
2023-02-02T11:58:43.080Z,1.60
2023-02-02T12:01:25.934Z,1.30
2023-02-02T12:03:56.927Z,1.50
2023-02-02T12:06:27.748Z,1.30
2023-02-02T12:09:03.970Z,1.40
2023-02-02T12:11:59.629Z,1.70
2023-02-02T12:15:05.125Z,1.40
2023-02-02T12:17:46.404Z,1.50
2023-02-02T12:20:33.630Z,1.60
2023-02-02T12:23:35.916Z,1.40
2023-02-02T12:26:15.331Z,1.50
2023-02-02T12:29:04.695Z,1.30
2023-02-02T12:32:02.431Z,1.40
2023-02-02T12:34:36.888Z,1.30
2023-02-02T12:37:26.897Z,1.50
2023-02-02T12:40:19.993Z,1.40
2023-02-02T12:43:06.753Z,1.40
2023-02-02T12:45:44.323Z,1.40
2023-02-02T12:48:31.150Z,1.70
2023-02-02T12:51:09.959Z,1.40
2023-02-02T12:54:33.297Z,1.40
2023-02-02T12:56:42.945Z,1.40
2023-02-02T12:59:23.175Z,1.50
2023-02-02T13:01:51.340Z,1.20
2023-02-02T13:04:37.714Z,1.20
2023-02-02T13:07:05.863Z,1.40
2023-02-02T13:10:06.593Z,1.40
2023-02-02T13:12:40.093Z,1.50
2023-02-02T13:15:13.699Z,1.20
2023-02-02T13:17:55.904Z,1.80
2023-02-02T13:20:27.908Z,1.60
2023-02-02T13:23:00.406Z,1.60
2023-02-02T13:25:34.874Z,1.40
2023-02-02T13:28:07.343Z,1.20
2023-02-02T13:30:38.814Z,1.50
2023-02-02T13:33:25.579Z,1.40
2023-02-02T13:36:02.125Z,1.30
2023-02-02T13:38:31.041Z,1.30
2023-02-02T13:41:07.582Z,1.40
2023-02-02T13:43:52.983Z,1.60
2023-02-02T13:47:02.367Z,1.60
2023-02-02T13:49:32.914Z,1.50
2023-02-02T13:52:16.301Z,1.70
2023-02-02T13:55:02.193Z,1.80
2023-02-02T13:57:48.768Z,1.60
2023-02-02T14:00:19.867Z,1.80
2023-02-02T14:02:51.673Z,1.70
2023-02-02T14:05:31.920Z,1.90
2023-02-02T14:08:07.426Z,2.20
2023-02-02T14:10:43.920Z,2.20
2023-02-02T14:13:40.861Z,1.80
2023-02-02T14:16:22.016Z,2.10
2023-02-02T14:18:53.481Z,1.80
2023-02-02T14:21:36.397Z,2.10
2023-02-02T14:24:25.018Z,1.90
2023-02-02T14:26:59.138Z,1.80
2023-02-02T14:29:31.720Z,1.90
2023-02-02T14:32:18.280Z,1.70
2023-02-02T14:34:47.097Z,1.80
2023-02-02T14:37:24.152Z,1.60
2023-02-02T14:39:58.569Z,1.50
2023-02-02T14:43:05.525Z,1.80
2023-02-02T14:45:37.217Z,1.80
2023-02-02T14:48:17.165Z,1.90
2023-02-02T14:51:00.201Z,1.70
2023-02-02T14:53:38.237Z,2.40
2023-02-02T14:56:12.727Z,2.20
2023-02-02T14:58:46.922Z,2.70
2023-02-02T15:01:18.481Z,2.70
2023-02-02T15:04:07.200Z,3.20
2023-02-02T15:06:37.509Z,2.80
2023-02-02T15:09:20.985Z,3.20
2023-02-02T15:12:09.400Z,2.80
2023-02-02T15:15:15.253Z,2.50
2023-02-02T15:17:53.489Z,2.80
2023-02-02T15:20:28.263Z,3.00
2023-02-02T15:23:22.613Z,2.80
2023-02-02T15:25:58.004Z,2.80
2023-02-02T15:28:35.038Z,3.10
2023-02-02T15:31:23.384Z,3.30
2023-02-02T15:33:55.718Z,3.30
2023-02-02T15:36:28.081Z,3.60
2023-02-02T15:38:59.862Z,3.30
2023-02-02T15:41:34.685Z,3.20
2023-02-02T15:44:18.687Z,3.10
2023-02-02T15:46:47.597Z,2.30
2023-02-02T15:49:35.090Z,2.00
2023-02-02T15:52:25.353Z,2.20
2023-02-02T15:54:56.522Z,2.30
2023-02-02T15:57:36.472Z,2.00
2023-02-02T16:00:31.055Z,1.90
2023-02-02T16:03:23.650Z,2.10
2023-02-02T16:05:56.695Z,2.20
2023-02-02T16:08:28.454Z,1.80
2023-02-02T16:11:11.184Z,3.00
2023-02-02T16:13:40.555Z,2.30
2023-02-02T16:16:23.646Z,2.10
2023-02-02T16:19:13.335Z,2.80
2023-02-02T16:21:47.115Z,3.40
2023-02-02T16:24:24.320Z,2.90
2023-02-02T16:26:54.558Z,2.50
2023-02-02T16:29:23.341Z,3.00
2023-02-02T16:31:51.507Z,3.20
2023-02-02T16:34:44.939Z,3.10
2023-02-02T16:37:25.809Z,3.90
2023-02-02T16:40:15.282Z,4.00
2023-02-02T16:42:43.355Z,4.00
2023-02-02T16:45:43.119Z,3.90
2023-02-02T16:48:33.168Z,3.70
2023-02-02T16:51:16.379Z,4.70
2023-02-02T16:53:58.239Z,4.10
2023-02-02T16:56:30.935Z,3.50
2023-02-02T16:59:04.042Z,4.10
2023-02-02T17:01:41.765Z,4.10
2023-02-02T17:04:18.596Z,4.40
2023-02-02T17:06:52.868Z,3.20
2023-02-02T17:09:31.927Z,3.10
2023-02-02T17:12:31.957Z,3.20
2023-02-02T17:15:05.801Z,3.50
2023-02-02T17:17:33.816Z,3.50
2023-02-02T17:20:01.909Z,3.60
2023-02-02T17:22:31.835Z,3.40
2023-02-02T17:24:59.953Z,3.40
2023-02-02T17:27:33.880Z,2.90
2023-02-02T17:30:04.579Z,3.00
2023-02-02T17:32:32.825Z,3.00
2023-02-02T17:35:00.890Z,2.80
2023-02-02T17:37:29.054Z,3.00
2023-02-02T17:39:57.236Z,3.30
2023-02-02T17:42:28.185Z,3.80
2023-02-02T17:47:24.124Z,3.90
2023-02-02T17:49:52.183Z,3.50
2023-02-02T17:52:20.412Z,3.40
2023-02-02T17:54:48.424Z,3.60
2023-02-02T17:57:16.647Z,2.90
2023-02-02T17:59:44.667Z,3.00
2023-02-02T18:02:15.987Z,3.10
2023-02-02T18:04:45.687Z,3.10
2023-02-02T18:07:14.083Z,2.90
2023-02-02T18:09:42.182Z,3.10
2023-02-02T18:12:10.317Z,3.20
2023-02-02T18:14:38.447Z,3.10
2023-02-02T18:17:08.390Z,3.00
2023-02-02T18:19:36.714Z,3.30
2023-02-02T18:22:06.452Z,2.70
2023-02-02T18:24:35.027Z,3.40
2023-02-02T18:27:03.281Z,3.80
2023-02-02T18:29:31.486Z,4.30
2023-02-02T18:31:59.774Z,4.60
2023-02-02T18:34:32.318Z,4.80
2023-02-02T18:37:00.748Z,3.80
2023-02-02T18:39:29.694Z,4.50
2023-02-02T18:41:58.632Z,4.10
2023-02-02T18:44:26.938Z,6.30
2023-02-02T18:46:55.308Z,5.90
2023-02-02T18:49:23.468Z,6.00
2023-02-02T18:51:51.560Z,6.90
2023-02-02T18:54:19.786Z,7.00
2023-02-02T18:56:48.214Z,7.30
2023-02-02T18:59:16.522Z,6.50
2023-02-02T19:01:44.715Z,7.10
2023-02-02T19:04:12.901Z,5.90
2023-02-02T19:06:59.778Z,5.30
2023-02-02T19:09:27.990Z,5.40
2023-02-02T19:11:56.388Z,4.70
2023-02-02T19:14:31.319Z,5.10
2023-02-02T19:17:04.987Z,5.20
2023-02-02T19:19:34.686Z,5.50
2023-02-02T19:22:22.368Z,5.40
2023-02-02T19:24:50.976Z,4.10
2023-02-02T19:27:24.795Z,3.50
2023-02-02T19:29:56.839Z,2.90
2023-02-02T19:32:27.027Z,3.00
2023-02-02T19:35:01.884Z,2.70
2023-02-02T19:37:32.442Z,2.70
2023-02-02T19:40:09.541Z,2.40
2023-02-02T19:42:45.436Z,2.50
2023-02-02T19:45:24.576Z,2.40
2023-02-02T19:47:55.967Z,2.70
2023-02-02T19:50:32.593Z,2.50
2023-02-02T19:53:05.848Z,2.20
2023-02-02T19:55:36.643Z,2.40
2023-02-02T20:00:47.252Z,2.60
2023-02-02T20:03:26.031Z,2.60
2023-02-02T20:05:56.876Z,2.60
2023-02-02T20:11:01.021Z,2.70
2023-02-02T20:13:31.836Z,2.90
2023-02-02T20:18:48.579Z,3.00
2023-02-02T20:21:41.949Z,3.60
2023-02-02T20:24:15.081Z,2.80
2023-02-02T20:26:43.324Z,2.70
2023-02-02T20:29:20.370Z,2.30
2023-02-02T20:31:51.201Z,1.90
2023-02-02T20:37:23.777Z,2.40
2023-02-02T20:40:04.684Z,2.20
2023-02-02T20:45:00.907Z,2.40
2023-02-02T20:47:30.194Z,2.40
2023-02-02T20:50:00.696Z,2.30
2023-02-02T20:52:31.138Z,2.00
2023-02-02T20:54:59.237Z,2.10
2023-02-02T20:57:27.452Z,2.10
2023-02-02T20:59:57.836Z,1.90
2023-02-02T21:02:27.125Z,1.90
2023-02-02T21:04:55.545Z,1.60
2023-02-02T21:07:23.667Z,1.80
2023-02-02T21:09:51.814Z,1.70
2023-02-02T21:12:24.516Z,1.60
2023-02-02T21:14:55.646Z,2.00
2023-02-02T21:17:23.802Z,2.00
2023-02-02T21:19:52.018Z,2.10
2023-02-02T21:22:20.223Z,1.80
2023-02-02T21:24:48.355Z,1.90
2023-02-02T21:27:16.542Z,2.20
2023-02-02T21:29:44.771Z,2.10
2023-02-02T21:32:12.902Z,1.90
2023-02-02T21:34:41.054Z,2.10
2023-02-02T21:37:14.690Z,1.90
2023-02-02T21:39:51.208Z,2.00
2023-02-02T21:42:21.450Z,1.90
2023-02-02T21:44:54.312Z,2.10
2023-02-02T21:47:22.359Z,2.10
2023-02-02T21:49:50.417Z,1.90
2023-02-02T21:52:20.100Z,2.00
2023-02-02T21:54:49.084Z,2.00
2023-02-02T21:57:18.301Z,2.30
2023-02-02T21:59:50.327Z,2.30
2023-02-02T22:02:42.545Z,2.30
2023-02-02T22:05:38.651Z,2.20
2023-02-02T22:08:24.161Z,2.10
2023-02-02T22:10:52.197Z,2.30
2023-02-02T22:13:23.135Z,2.00
2023-02-02T22:15:52.873Z,2.30
2023-02-02T22:18:23.697Z,2.10
2023-02-02T22:20:54.572Z,2.10
2023-02-02T22:25:57.920Z,2.20
2023-02-02T22:28:29.939Z,2.20
2023-02-02T22:30:58.831Z,2.20
2023-02-02T22:33:27.067Z,2.20
2023-02-02T22:35:55.137Z,2.10
2023-02-02T22:38:25.014Z,2.10
2023-02-02T22:40:53.881Z,2.50
2023-02-02T22:43:22.190Z,2.60
2023-02-02T22:45:50.331Z,3.00
2023-02-02T22:48:19.016Z,2.70
2023-02-02T22:50:47.358Z,3.00
2023-02-02T22:53:15.688Z,3.40
2023-02-02T22:55:43.903Z,3.20
2023-02-02T22:58:11.909Z,3.10
2023-02-02T23:00:40.008Z,3.00
2023-02-02T23:03:08.071Z,2.60
2023-02-02T23:05:36.162Z,2.40
2023-02-02T23:08:04.477Z,2.60
2023-02-02T23:10:35.917Z,2.90
2023-02-02T23:13:05.423Z,2.60
2023-02-02T23:15:33.781Z,2.90
2023-02-02T23:18:02.629Z,2.70
2023-02-02T23:20:30.882Z,3.00
2023-02-02T23:22:58.952Z,3.50
2023-02-02T23:25:27.004Z,2.90
2023-02-02T23:27:55.127Z,2.70
2023-02-02T23:30:24.714Z,3.00
2023-02-02T23:32:53.365Z,2.80
2023-02-02T23:35:21.558Z,2.80
2023-02-02T23:37:49.653Z,2.40
2023-02-02T23:40:17.878Z,2.70
2023-02-02T23:42:45.900Z,2.80
2023-02-02T23:45:16.260Z,2.70
2023-02-02T23:47:44.857Z,2.70
2023-02-02T23:50:13.402Z,2.70
2023-02-02T23:52:41.607Z,2.90
2023-02-02T23:55:09.966Z,2.80
2023-02-02T23:57:38.365Z,2.80
